Sulphur, Louisiana
Current Conditions -  °F | °C
As of 1:15 AM on Thursday 18 Dec 2014 (Local Time) from KUXL Reporting Station
Broken Clouds Broken Clouds  
Wind Chill: 56°   Ceiling: 12000
Heat Index: 56°   Visibility: 10mi
Dew Point: 50°   Wind: 7mph
Humidity: 81%   Direction: 100°E
Pressure: 30.14"   Gusts: NA
Location:  30.24°N, 93.38°W
Report Text: KUXL 180715Z AUTO 10006KT 10SM BKN120 13/10 A3014 RMK AO2 T01310100
Loading
Personal Weather Stations






























Interactive Weather Map New forecast layout! Learn more

10-Day Weather Forecast

Advertisements
Track Severe Weather on mobile